Time;durP1;ratioP1;P1;durP2;ratioP2;P2;SDS_P1;SDS_P2;PMS_P1;PMS_P2;Temp;Humidity;BMP_temperature;BMP_pressure;BME280_temperature;BME280_humidity;BME280_pressure;Samples;Min_cycle;Max_cycle;Signal;HPM_P1;HPM_P2
2022/02/21 00:00:39;;;;;;;6.10;4.40;;;;;;;;;;4996806;28;20388;-56
2022/02/21 00:03:06;;;;;;;7.35;4.43;;;;;;;;;;5002472;28;20085;-56
2022/02/21 00:05:32;;;;;;;5.32;3.97;;;;;;;;;;5002628;28;20556;-56
2022/02/21 00:07:57;;;;;;;6.07;3.90;;;;;;;;;;5002608;28;20117;-56
2022/02/21 00:10:22;;;;;;;6.43;4.27;;;;;;;;;;5002443;28;20822;-56
2022/02/21 00:12:47;;;;;;;6.22;4.20;;;;;;;;;;5004044;28;20018;-57
2022/02/21 00:15:18;;;;;;;6.80;4.67;;;;;;;;;;5003844;28;20034;-58
2022/02/21 00:17:44;;;;;;;7.40;4.40;;;;;;;;;;5003212;28;20269;-57
2022/02/21 00:20:10;;;;;;;6.18;4.35;;;;;;;;;;5002369;28;20487;-56
2022/02/21 00:22:35;;;;;;;6.30;4.03;;;;;;;;;;4981605;28;20106;-56
2022/02/21 00:25:00;;;;;;;6.40;4.03;;;;;;;;;;4999399;28;20029;-56
2022/02/21 00:27:25;;;;;;;7.15;4.38;;;;;;;;;;5001455;28;20026;-57
2022/02/21 00:29:51;;;;;;;6.32;4.50;;;;;;;;;;5002384;28;20037;-57
2022/02/21 00:32:16;;;;;;;6.25;4.28;;;;;;;;;;5002388;28;20034;-57
2022/02/21 00:34:41;;;;;;;7.40;4.40;;;;;;;;;;5001771;28;20022;-57
2022/02/21 00:37:06;;;;;;;6.47;4.77;;;;;;;;;;5000588;28;20030;-57
2022/02/21 00:39:32;;;;;;;7.40;4.65;;;;;;;;;;4982905;28;20297;-57
2022/02/21 00:41:57;;;;;;;6.83;4.73;;;;;;;;;;4989977;28;20087;-57
2022/02/21 00:44:22;;;;;;;7.07;4.60;;;;;;;;;;5001743;28;20281;-60
2022/02/21 00:46:47;;;;;;;7.43;4.80;;;;;;;;;;5002356;28;20275;-57
2022/02/21 00:49:13;;;;;;;7.50;5.10;;;;;;;;;;5000863;28;20300;-57
2022/02/21 00:51:38;;;;;;;8.17;5.20;;;;;;;;;;5001541;28;20291;-57
2022/02/21 00:54:03;;;;;;;6.67;4.80;;;;;;;;;;4996550;28;20726;-57
2022/02/21 00:56:28;;;;;;;6.70;4.90;;;;;;;;;;4991233;28;20192;-56
2022/02/21 00:58:53;;;;;;;6.67;4.53;;;;;;;;;;4997780;28;20261;-57
2022/02/21 01:01:19;;;;;;;7.40;5.00;;;;;;;;;;4999528;28;20281;-56
2022/02/21 01:03:44;;;;;;;7.43;4.67;;;;;;;;;;4980481;28;20277;-56
2022/02/21 01:06:10;;;;;;;7.97;4.90;;;;;;;;;;4963894;28;20281;-56
2022/02/21 01:08:36;;;;;;;6.63;4.93;;;;;;;;;;4995856;28;20703;-56
2022/02/21 01:11:01;;;;;;;7.63;4.93;;;;;;;;;;5001102;28;20042;-57
2022/02/21 01:13:26;;;;;;;8.13;5.27;;;;;;;;;;5001286;28;20036;-59
2022/02/21 01:15:53;;;;;;;8.63;5.43;;;;;;;;;;5001335;28;20025;-57
2022/02/21 01:18:18;;;;;;;7.88;5.38;;;;;;;;;;4990473;28;20516;-56
2022/02/21 01:20:44;;;;;;;7.70;4.68;;;;;;;;;;4995876;28;20022;-56
2022/02/21 01:23:09;;;;;;;7.80;5.03;;;;;;;;;;5000293;28;20038;-56
2022/02/21 01:25:34;;;;;;;7.80;5.23;;;;;;;;;;5001363;28;20269;-57
2022/02/21 01:27:59;;;;;;;7.90;5.35;;;;;;;;;;5000305;28;20271;-56
2022/02/21 01:30:25;;;;;;;7.13;4.93;;;;;;;;;;5001349;28;20574;-56
2022/02/21 01:32:50;;;;;;;7.83;5.03;;;;;;;;;;5001462;28;20028;-57
2022/02/21 01:35:15;;;;;;;7.30;5.03;;;;;;;;;;4999157;28;20273;-57
2022/02/21 01:37:40;;;;;;;6.73;4.57;;;;;;;;;;5001517;28;20018;-57
2022/02/21 01:40:09;;;;;;;8.90;5.35;;;;;;;;;;5000946;28;20272;-56
2022/02/21 01:42:35;;;;;;;7.07;4.80;;;;;;;;;;5000265;28;20021;-57
2022/02/21 01:45:00;;;;;;;7.70;5.25;;;;;;;;;;5000465;28;20512;-57
2022/02/21 01:47:25;;;;;;;7.47;4.87;;;;;;;;;;5000925;28;20132;-57
2022/02/21 01:49:50;;;;;;;7.17;4.87;;;;;;;;;;5000353;28;20380;-59
2022/02/21 01:52:16;;;;;;;7.50;4.83;;;;;;;;;;5000348;28;20297;-55
2022/02/21 01:54:41;;;;;;;8.05;5.15;;;;;;;;;;5000858;28;20659;-57
2022/02/21 01:57:08;;;;;;;7.53;5.25;;;;;;;;;;5000008;28;20021;-58
2022/02/21 01:59:34;;;;;;;7.85;5.20;;;;;;;;;;5000930;28;20025;-57
2022/02/21 02:01:59;;;;;;;8.52;5.03;;;;;;;;;;5000932;28;20014;-58
2022/02/21 02:04:25;;;;;;;7.50;4.90;;;;;;;;;;5000653;28;20045;-62
2022/02/21 02:06:50;;;;;;;8.30;5.38;;;;;;;;;;5000587;28;20105;-57
2022/02/21 02:09:15;;;;;;;8.85;5.65;;;;;;;;;;5000362;28;20168;-55
2022/02/21 02:11:44;;;;;;;8.13;5.13;;;;;;;;;;5000320;28;20029;-57
2022/02/21 02:14:25;;;;;;;7.05;4.90;;;;;;;;;;4999670;28;20641;-56
2022/02/21 02:16:50;;;;;;;6.70;5.00;;;;;;;;;;5000686;28;20041;-56
2022/02/21 02:19:16;;;;;;;7.30;5.03;;;;;;;;;;4983956;28;20473;-56
2022/02/21 02:21:41;;;;;;;6.87;4.60;;;;;;;;;;5000133;28;20524;-56
2022/02/21 02:24:06;;;;;;;7.50;5.07;;;;;;;;;;5000231;28;20516;-56
2022/02/21 02:26:31;;;;;;;7.15;5.30;;;;;;;;;;4999954;28;20025;-57
2022/02/21 02:28:57;;;;;;;7.97;5.03;;;;;;;;;;4978472;28;20053;-57
2022/02/21 02:31:22;;;;;;;7.73;4.57;;;;;;;;;;4966301;28;20787;-56
2022/02/21 02:33:47;;;;;;;7.17;4.80;;;;;;;;;;4999589;28;20779;-55
2022/02/21 02:36:12;;;;;;;6.80;5.03;;;;;;;;;;5000274;28;20512;-56
2022/02/21 02:38:38;;;;;;;8.33;5.27;;;;;;;;;;4994582;28;20798;-57
2022/02/21 02:41:04;;;;;;;8.00;5.20;;;;;;;;;;4985325;28;20493;-56
2022/02/21 02:43:30;;;;;;;7.30;5.00;;;;;;;;;;5003946;28;20025;-56
2022/02/21 02:45:55;;;;;;;7.30;4.97;;;;;;;;;;5004058;28;20025;-56
2022/02/21 02:48:20;;;;;;;7.33;4.90;;;;;;;;;;5004058;28;20053;-56
2022/02/21 02:50:45;;;;;;;6.67;4.50;;;;;;;;;;5003667;28;20390;-56
2022/02/21 02:53:11;;;;;;;7.30;4.85;;;;;;;;;;5001516;28;20280;-56
2022/02/21 02:55:36;;;;;;;6.75;4.60;;;;;;;;;;4988864;28;20076;-56
2022/02/21 02:58:01;;;;;;;6.23;4.37;;;;;;;;;;4995021;28;20065;-56
2022/02/21 03:00:27;;;;;;;8.03;4.73;;;;;;;;;;4995991;28;20260;-56
2022/02/21 03:02:52;;;;;;;6.32;4.72;;;;;;;;;;5003221;28;20276;-58
2022/02/21 03:05:17;;;;;;;6.97;4.70;;;;;;;;;;5003518;28;20029;-56
2022/02/21 03:07:42;;;;;;;7.13;4.67;;;;;;;;;;4985209;28;20281;-56
2022/02/21 03:10:07;;;;;;;7.10;4.63;;;;;;;;;;5003760;28;20311;-56
2022/02/21 03:12:33;;;;;;;6.72;4.63;;;;;;;;;;5003337;28;20029;-56
2022/02/21 03:14:58;;;;;;;7.43;4.70;;;;;;;;;;5003526;28;20073;-56
2022/02/21 03:17:24;;;;;;;6.43;4.40;;;;;;;;;;5003191;28;20143;-57
2022/02/21 03:19:49;;;;;;;7.47;4.60;;;;;;;;;;5002965;28;20272;-56
2022/02/21 03:22:14;;;;;;;5.68;4.20;;;;;;;;;;5003004;28;20692;-55
2022/02/21 03:24:40;;;;;;;6.67;4.10;;;;;;;;;;5002936;28;20475;-56
2022/02/21 03:27:05;;;;;;;6.40;4.38;;;;;;;;;;5002466;28;20303;-55
2022/02/21 03:29:30;;;;;;;6.93;4.27;;;;;;;;;;5002970;28;20601;-56
2022/02/21 03:31:55;;;;;;;6.90;4.47;;;;;;;;;;5003310;28;20280;-56
2022/02/21 03:34:21;;;;;;;5.93;4.10;;;;;;;;;;5002533;28;20029;-56
2022/02/21 03:36:46;;;;;;;7.13;4.53;;;;;;;;;;4988524;28;20034;-55
2022/02/21 03:39:12;;;;;;;6.18;4.35;;;;;;;;;;4999118;28;20733;-56
2022/02/21 03:41:37;;;;;;;6.87;4.33;;;;;;;;;;5002382;28;20614;-56
2022/02/21 03:44:02;;;;;;;6.32;3.85;;;;;;;;;;5002468;28;20067;-55
2022/02/21 03:46:28;;;;;;;7.32;4.50;;;;;;;;;;5002856;28;20088;-56
2022/02/21 03:48:53;;;;;;;6.57;4.45;;;;;;;;;;5005376;28;20038;-56
2022/02/21 03:51:19;;;;;;;5.88;4.00;;;;;;;;;;5005051;28;20838;-56
2022/02/21 03:53:44;;;;;;;6.90;4.40;;;;;;;;;;5002606;28;20042;-56
2022/02/21 03:56:09;;;;;;;7.00;4.40;;;;;;;;;;5002651;28;20057;-57
2022/02/21 03:58:34;;;;;;;6.03;3.87;;;;;;;;;;5002484;28;20767;-57
2022/02/21 04:01:00;;;;;;;6.65;4.47;;;;;;;;;;5002340;28;20265;-56
2022/02/21 04:03:25;;;;;;;7.00;4.30;;;;;;;;;;4998616;28;20470;-56
2022/02/21 04:05:50;;;;;;;5.70;3.60;;;;;;;;;;4982741;28;20026;-55
2022/02/21 04:08:15;;;;;;;6.40;4.23;;;;;;;;;;4982587;28;20109;-57
2022/02/21 04:10:40;;;;;;;5.83;4.07;;;;;;;;;;4982670;28;20377;-56
2022/02/21 04:13:06;;;;;;;6.00;3.80;;;;;;;;;;4982130;28;20273;-57
2022/02/21 04:15:31;;;;;;;5.80;4.50;;;;;;;;;;4982902;28;20340;-57
2022/02/21 04:17:56;;;;;;;5.70;3.78;;;;;;;;;;4997372;28;20108;-56
2022/02/21 04:20:22;;;;;;;6.77;4.33;;;;;;;;;;5011156;28;20413;-56
2022/02/21 04:22:47;;;;;;;5.30;3.83;;;;;;;;;;5001663;28;20719;-56
2022/02/21 04:25:13;;;;;;;6.00;4.00;;;;;;;;;;4997447;28;20460;-57
2022/02/21 04:27:56;;;;;;;5.68;3.63;;;;;;;;;;4987687;28;20444;-56
2022/02/21 04:30:23;;;;;;;5.10;3.50;;;;;;;;;;5001742;28;20037;-56
2022/02/21 04:32:48;;;;;;;6.07;3.85;;;;;;;;;;5002160;28;20026;-57
2022/02/21 04:35:14;;;;;;;4.75;3.60;;;;;;;;;;5001250;28;20531;-57
2022/02/21 04:37:39;;;;;;;6.25;4.05;;;;;;;;;;5001772;28;20032;-57
2022/02/21 04:40:07;;;;;;;5.53;3.57;;;;;;;;;;5001853;28;20015;-56
2022/02/21 04:42:32;;;;;;;5.25;3.53;;;;;;;;;;5001758;28;20555;-56
2022/02/21 04:44:57;;;;;;;5.07;3.30;;;;;;;;;;5001202;28;20060;-57
2022/02/21 04:47:23;;;;;;;5.07;3.70;;;;;;;;;;5001263;28;20066;-56
2022/02/21 04:49:48;;;;;;;5.05;3.42;;;;;;;;;;5001604;28;20749;-58
2022/02/21 04:52:13;;;;;;;5.13;3.50;;;;;;;;;;5001458;28;20030;-56
2022/02/21 04:54:38;;;;;;;5.43;3.67;;;;;;;;;;5001385;28;20034;-58
2022/02/21 04:57:04;;;;;;;5.03;3.13;;;;;;;;;;5000957;28;20022;-58
2022/02/21 04:59:29;;;;;;;5.60;3.28;;;;;;;;;;5001544;28;20018;-57
2022/02/21 05:01:54;;;;;;;5.20;3.43;;;;;;;;;;5001807;28;20412;-54
2022/02/21 05:04:20;;;;;;;4.95;3.10;;;;;;;;;;5000572;28;20268;-56
2022/02/21 05:06:45;;;;;;;4.70;3.30;;;;;;;;;;5001530;28;20061;-56
2022/02/21 05:09:10;;;;;;;4.73;3.30;;;;;;;;;;5000838;28;20790;-56
2022/02/21 05:11:36;;;;;;;5.00;3.20;;;;;;;;;;5000367;28;20095;-56
2022/02/21 05:14:01;;;;;;;4.57;3.07;;;;;;;;;;4983512;28;20025;-56
2022/02/21 05:16:26;;;;;;;5.70;3.60;;;;;;;;;;4988465;28;20105;-57
2022/02/21 05:18:51;;;;;;;5.57;3.60;;;;;;;;;;4991991;28;20045;-56
2022/02/21 05:21:16;;;;;;;6.67;3.27;;;;;;;;;;4999677;28;20021;-56
2022/02/21 05:23:42;;;;;;;7.90;3.57;;;;;;;;;;5000730;28;20865;-58
2022/02/21 05:26:08;;;;;;;4.43;2.87;;;;;;;;;;4993824;28;20628;-58
2022/02/21 05:28:33;;;;;;;4.28;3.03;;;;;;;;;;4999796;28;20022;-58
2022/02/21 05:30:58;;;;;;;4.35;3.03;;;;;;;;;;4999480;28;20111;-59
2022/02/21 05:33:23;;;;;;;5.13;3.23;;;;;;;;;;4981129;28;20032;-58
2022/02/21 05:35:49;;;;;;;4.27;2.90;;;;;;;;;;4998448;28;20034;-58
2022/02/21 05:38:14;;;;;;;5.00;3.23;;;;;;;;;;4999405;28;20041;-57
2022/02/21 05:40:39;;;;;;;4.00;2.80;;;;;;;;;;4999828;28;20022;-57
2022/02/21 05:43:04;;;;;;;4.77;3.30;;;;;;;;;;4998816;28;20261;-58
2022/02/21 05:45:29;;;;;;;5.40;3.60;;;;;;;;;;4998239;28;20037;-59
2022/02/21 05:47:55;;;;;;;4.53;3.07;;;;;;;;;;4999980;28;20072;-58
2022/02/21 05:50:20;;;;;;;4.43;2.83;;;;;;;;;;4999939;28;20030;-59
2022/02/21 05:52:46;;;;;;;4.13;3.03;;;;;;;;;;5001249;28;20368;-58
2022/02/21 05:55:11;;;;;;;4.25;3.05;;;;;;;;;;4998465;28;20056;-59
2022/02/21 05:57:36;;;;;;;5.07;3.42;;;;;;;;;;4997786;28;20120;-58
2022/02/21 06:00:02;;;;;;;4.67;3.43;;;;;;;;;;4999622;28;20048;-58
2022/02/21 06:02:28;;;;;;;4.00;2.90;;;;;;;;;;5000038;28;20340;-60
2022/02/21 06:04:54;;;;;;;5.20;3.20;;;;;;;;;;4999361;28;20497;-58
2022/02/21 06:07:19;;;;;;;5.32;3.17;;;;;;;;;;4999662;28;20048;-56
2022/02/21 06:09:48;;;;;;;4.30;3.03;;;;;;;;;;4981610;28;20119;-58
2022/02/21 06:12:13;;;;;;;4.43;3.30;;;;;;;;;;4992344;28;20029;-58
2022/02/21 06:14:38;;;;;;;4.63;2.85;;;;;;;;;;4992904;28;20034;-58
2022/02/21 06:17:04;;;;;;;4.97;3.43;;;;;;;;;;4982087;28;20018;-58
2022/02/21 06:19:29;;;;;;;5.82;3.05;;;;;;;;;;4982819;28;20030;-62
2022/02/21 06:21:55;;;;;;;5.70;3.30;;;;;;;;;;4999896;28;20029;-57
2022/02/21 06:24:21;;;;;;;4.20;2.97;;;;;;;;;;4999852;28;20025;-57
2022/02/21 06:26:46;;;;;;;4.57;2.90;;;;;;;;;;4999226;28;20032;-58
2022/02/21 06:29:11;;;;;;;4.40;2.73;;;;;;;;;;4999427;28;20022;-57
2022/02/21 06:31:36;;;;;;;4.67;3.00;;;;;;;;;;5000180;28;20625;-57
2022/02/21 06:34:02;;;;;;;4.57;2.80;;;;;;;;;;4999046;28;20073;-58
2022/02/21 06:36:27;;;;;;;4.63;3.03;;;;;;;;;;4982631;28;20694;-56
2022/02/21 06:38:52;;;;;;;4.53;3.05;;;;;;;;;;4980378;28;20047;-57
2022/02/21 06:41:17;;;;;;;5.17;2.90;;;;;;;;;;4998598;28;20370;-59
2022/02/21 06:43:43;;;;;;;4.80;2.77;;;;;;;;;;4998295;28;20127;-57
2022/02/21 06:46:08;;;;;;;5.03;2.83;;;;;;;;;;4995992;28;20343;-56
2022/02/21 06:48:33;;;;;;;4.72;2.83;;;;;;;;;;4975330;28;20052;-56
2022/02/21 06:50:59;;;;;;;4.33;2.87;;;;;;;;;;4999489;28;20037;-58
2022/02/21 06:53:24;;;;;;;4.87;2.93;;;;;;;;;;4999092;28;20029;-58
2022/02/21 06:55:49;;;;;;;4.43;2.87;;;;;;;;;;4992051;28;20026;-56
2022/02/21 06:58:14;;;;;;;4.43;2.80;;;;;;;;;;4990867;28;20024;-60
2022/02/21 07:00:40;;;;;;;9.07;3.90;;;;;;;;;;4995365;28;20026;-56
2022/02/21 07:03:05;;;;;;;7.13;3.30;;;;;;;;;;4999724;28;20408;-55
2022/02/21 07:05:30;;;;;;;8.97;3.47;;;;;;;;;;4983349;28;20381;-58
2022/02/21 07:07:55;;;;;;;9.23;3.30;;;;;;;;;;4998191;28;20268;-56
2022/02/21 07:10:20;;;;;;;14.40;4.27;;;;;;;;;;4982172;28;20297;-55
2022/02/21 07:12:46;;;;;;;11.70;4.00;;;;;;;;;;4999849;28;20413;-57
2022/02/21 07:15:11;;;;;;;11.00;3.80;;;;;;;;;;5000737;28;20265;-55
2022/02/21 07:17:37;;;;;;;16.80;3.97;;;;;;;;;;4999872;28;20026;-55
2022/02/21 07:20:03;;;;;;;10.88;3.63;;;;;;;;;;4998526;28;20030;-58
2022/02/21 07:22:28;;;;;;;15.60;4.53;;;;;;;;;;4988225;28;20560;-58
2022/02/21 07:24:53;;;;;;;11.60;4.23;;;;;;;;;;4994948;28;20029;-57
2022/02/21 07:27:18;;;;;;;10.47;3.80;;;;;;;;;;4996785;28;20034;-58
2022/02/21 07:29:43;;;;;;;10.97;3.80;;;;;;;;;;4988589;28;20319;-57
2022/02/21 07:32:09;;;;;;;14.52;4.55;;;;;;;;;;4985557;28;20038;-57
2022/02/21 07:34:34;;;;;;;17.87;4.43;;;;;;;;;;4985086;28;20030;-58
2022/02/21 07:36:59;;;;;;;11.40;4.03;;;;;;;;;;4985486;28;20169;-57
2022/02/21 07:39:24;;;;;;;14.07;4.70;;;;;;;;;;4983894;28;20839;-58
2022/02/21 07:41:50;;;;;;;15.27;4.35;;;;;;;;;;4984880;28;20269;-57
2022/02/21 07:44:16;;;;;;;14.07;4.60;;;;;;;;;;4984635;28;20033;-58
2022/02/21 07:46:41;;;;;;;13.68;3.80;;;;;;;;;;4995732;28;20018;-57
2022/02/21 07:49:06;;;;;;;17.27;5.13;;;;;;;;;;5002445;28;20057;-58
2022/02/21 07:51:31;;;;;;;13.20;4.38;;;;;;;;;;4996675;28;20301;-57
2022/02/21 07:53:57;;;;;;;11.70;3.90;;;;;;;;;;5002166;28;20033;-57
2022/02/21 07:56:22;;;;;;;16.47;5.10;;;;;;;;;;5000308;28;20034;-58
2022/02/21 07:58:47;;;;;;;16.80;4.47;;;;;;;;;;4993345;28;20135;-57
2022/02/21 08:01:12;;;;;;;13.97;4.80;;;;;;;;;;4989058;28;20034;-57
2022/02/21 08:03:38;;;;;;;12.43;4.67;;;;;;;;;;4982029;28;20029;-57
2022/02/21 08:06:10;;;;;;;10.90;3.97;;;;;;;;;;4982955;28;20700;-57
2022/02/21 08:08:35;;;;;;;16.05;4.90;;;;;;;;;;4981253;28;20029;-57
2022/02/21 08:11:01;;;;;;;16.93;4.73;;;;;;;;;;4982183;28;20034;-56
2022/02/21 08:13:26;;;;;;;16.90;5.67;;;;;;;;;;4985092;28;20773;-57
2022/02/21 08:15:51;;;;;;;16.80;4.30;;;;;;;;;;4981696;28;20552;-58
2022/02/21 08:18:16;;;;;;;11.17;4.20;;;;;;;;;;4982148;28;20695;-57
2022/02/21 08:20:42;;;;;;;16.23;5.03;;;;;;;;;;4982702;28;20475;-57
2022/02/21 08:23:07;;;;;;;17.08;4.43;;;;;;;;;;4982715;28;20578;-58
2022/02/21 08:25:32;;;;;;;19.37;4.63;;;;;;;;;;5001137;28;20029;-57
2022/02/21 08:27:57;;;;;;;12.97;4.30;;;;;;;;;;5001485;28;20249;-57
2022/02/21 08:30:23;;;;;;;12.40;4.23;;;;;;;;;;5001914;28;20301;-57
2022/02/21 08:32:48;;;;;;;10.88;4.00;;;;;;;;;;5002192;28;20116;-57
2022/02/21 08:35:14;;;;;;;12.68;4.15;;;;;;;;;;4983738;28;20124;-56
2022/02/21 08:37:39;;;;;;;14.23;4.53;;;;;;;;;;5006242;28;20029;-58
2022/02/21 08:40:05;;;;;;;12.25;4.15;;;;;;;;;;5013185;28;20018;-57
2022/02/21 08:42:30;;;;;;;15.88;4.57;;;;;;;;;;5001443;28;20032;-57
2022/02/21 08:44:57;;;;;;;12.55;4.18;;;;;;;;;;5001580;28;20115;-56
2022/02/21 08:47:22;;;;;;;16.65;5.00;;;;;;;;;;5001112;28;20069;-57
2022/02/21 08:49:48;;;;;;;12.52;5.10;;;;;;;;;;5001256;28;20045;-57
2022/02/21 08:52:13;;;;;;;15.37;4.80;;;;;;;;;;5001230;28;20160;-57
2022/02/21 08:54:38;;;;;;;11.73;4.22;;;;;;;;;;5001530;28;20680;-57
2022/02/21 08:57:04;;;;;;;13.17;5.00;;;;;;;;;;4983471;28;20113;-57
2022/02/21 08:59:29;;;;;;;13.88;4.30;;;;;;;;;;4998835;28;20100;-56
2022/02/21 09:01:54;;;;;;;14.07;4.23;;;;;;;;;;5001165;28;20365;-57
2022/02/21 09:04:19;;;;;;;14.53;4.60;;;;;;;;;;4986423;28;20427;-57
2022/02/21 09:06:44;;;;;;;11.73;5.10;;;;;;;;;;4990423;28;20109;-58
2022/02/21 09:09:10;;;;;;;16.57;4.33;;;;;;;;;;4980526;28;20026;-57
2022/02/21 09:11:35;;;;;;;13.23;4.60;;;;;;;;;;4985624;28;20095;-58
2022/02/21 09:14:00;;;;;;;15.60;4.82;;;;;;;;;;4985426;28;20030;-57
2022/02/21 09:16:25;;;;;;;17.65;4.82;;;;;;;;;;4991214;28;20021;-58
2022/02/21 09:18:51;;;;;;;15.55;4.40;;;;;;;;;;5000505;28;20113;-57
2022/02/21 09:21:16;;;;;;;9.93;4.17;;;;;;;;;;4983524;28;20030;-57
2022/02/21 09:23:41;;;;;;;13.37;4.80;;;;;;;;;;4963173;28;20277;-56
2022/02/21 09:26:06;;;;;;;14.00;4.53;;;;;;;;;;4963772;28;20117;-56
2022/02/21 09:28:31;;;;;;;11.03;4.70;;;;;;;;;;4991807;28;20273;-56
2022/02/21 09:30:57;;;;;;;10.53;4.50;;;;;;;;;;5000315;28;20037;-57
2022/02/21 09:33:22;;;;;;;15.20;4.97;;;;;;;;;;5000237;28;20280;-57
2022/02/21 09:35:48;;;;;;;8.90;4.23;;;;;;;;;;4993953;28;20261;-58
2022/02/21 09:38:13;;;;;;;10.73;4.28;;;;;;;;;;4997917;28;20646;-57
2022/02/21 09:40:39;;;;;;;12.60;4.40;;;;;;;;;;4996041;28;20497;-55
2022/02/21 09:43:04;;;;;;;11.23;4.18;;;;;;;;;;4966417;28;20055;-57
2022/02/21 09:45:29;;;;;;;11.67;4.77;;;;;;;;;;4982597;28;20532;-57
2022/02/21 09:47:55;;;;;;;13.80;5.13;;;;;;;;;;4993608;28;20042;-56
2022/02/21 09:50:20;;;;;;;12.55;5.28;;;;;;;;;;4989401;28;20116;-56
2022/02/21 09:52:45;;;;;;;12.83;4.43;;;;;;;;;;5000706;28;20444;-57
2022/02/21 09:55:10;;;;;;;10.03;3.90;;;;;;;;;;5000671;28;20508;-57
2022/02/21 09:57:35;;;;;;;9.73;3.90;;;;;;;;;;4997041;28;20508;-57
2022/02/21 10:00:02;;;;;;;12.40;4.63;;;;;;;;;;4984620;28;20497;-57
2022/02/21 10:02:29;;;;;;;9.23;4.05;;;;;;;;;;4984242;28;20022;-57
2022/02/21 10:05:14;;;;;;;11.23;4.22;;;;;;;;;;4962983;28;20034;-57
2022/02/21 10:07:40;;;;;;;11.02;4.38;;;;;;;;;;4988429;28;20068;-57
2022/02/21 10:10:06;;;;;;;9.10;4.20;;;;;;;;;;4969228;28;20071;-55
2022/02/21 10:12:31;;;;;;;14.88;4.15;;;;;;;;;;4978828;28;20022;-57
2022/02/21 10:14:57;;;;;;;9.25;4.03;;;;;;;;;;4990509;28;20034;-58
2022/02/21 10:17:23;;;;;;;10.95;4.50;;;;;;;;;;4999106;28;20026;-59
2022/02/21 10:19:49;;;;;;;11.50;3.95;;;;;;;;;;4996010;28;20049;-56
2022/02/21 10:22:15;;;;;;;8.98;3.80;;;;;;;;;;5000280;28;20124;-56
2022/02/21 10:24:44;;;;;;;10.40;4.13;;;;;;;;;;4998977;28;20073;-57
2022/02/21 10:27:38;;;;;;;8.88;3.72;;;;;;;;;;4999746;28;20125;-57
2022/02/21 10:30:05;;;;;;;9.70;4.47;;;;;;;;;;4968608;28;20428;-56
2022/02/21 10:32:34;;;;;;;9.45;4.13;;;;;;;;;;4980360;28;20029;-58
2022/02/21 10:35:30;;;;;;;9.32;4.05;;;;;;;;;;4980134;28;20027;-59
2022/02/21 10:37:58;;;;;;;9.55;3.60;;;;;;;;;;4973367;28;20041;-58
2022/02/21 10:40:26;;;;;;;7.97;3.78;;;;;;;;;;5009616;28;20424;-60
2022/02/21 10:43:01;;;;;;;8.88;3.72;;;;;;;;;;4994495;28;20512;-58
2022/02/21 10:45:27;;;;;;;9.45;4.15;;;;;;;;;;4999068;28;20026;-58
2022/02/21 10:48:01;;;;;;;9.25;4.03;;;;;;;;;;4999171;28;20491;-57
2022/02/21 10:50:27;;;;;;;9.80;3.80;;;;;;;;;;4999561;28;20475;-56
2022/02/21 10:52:52;;;;;;;9.95;4.25;;;;;;;;;;4998726;28;20034;-56
2022/02/21 10:55:17;;;;;;;10.67;3.83;;;;;;;;;;4993124;28;20061;-57
2022/02/21 10:57:43;;;;;;;8.23;3.50;;;;;;;;;;4998014;28;20029;-58
2022/02/21 11:00:10;;;;;;;9.88;3.80;;;;;;;;;;4995711;28;20029;-56
2022/02/21 11:02:36;;;;;;;6.53;3.25;;;;;;;;;;4988558;28;20026;-58
2022/02/21 11:05:01;;;;;;;7.90;3.60;;;;;;;;;;4998016;28;20098;-57
2022/02/21 11:07:27;;;;;;;7.05;3.63;;;;;;;;;;4985309;28;20109;-58
2022/02/21 11:09:52;;;;;;;8.27;3.70;;;;;;;;;;5001844;28;20111;-55
2022/02/21 11:12:20;;;;;;;8.05;3.90;;;;;;;;;;4982382;28;20034;-55
2022/02/21 11:14:45;;;;;;;8.38;3.72;;;;;;;;;;4996391;28;20033;-59
2022/02/21 11:17:11;;;;;;;9.53;3.90;;;;;;;;;;4991622;28;20033;-56
2022/02/21 11:19:36;;;;;;;10.95;4.30;;;;;;;;;;5002991;28;20400;-58
2022/02/21 11:22:01;;;;;;;7.32;3.70;;;;;;;;;;4978694;28;20023;-59
2022/02/21 11:24:30;;;;;;;9.45;3.70;;;;;;;;;;4973583;28;20027;-56
2022/02/21 11:26:56;;;;;;;7.20;3.45;;;;;;;;;;4979800;28;20015;-56
2022/02/21 11:29:32;;;;;;;7.10;3.60;;;;;;;;;;4996677;28;20116;-56
2022/02/21 11:31:57;;;;;;;8.95;3.97;;;;;;;;;;4980336;28;20030;-58
2022/02/21 11:34:22;;;;;;;8.17;3.73;;;;;;;;;;4965715;28;20488;-59
2022/02/21 11:36:57;;;;;;;9.80;3.72;;;;;;;;;;4998870;28;20269;-59
2022/02/21 11:39:24;;;;;;;7.47;3.45;;;;;;;;;;4988661;28;20026;-61
2022/02/21 11:42:02;;;;;;;6.00;3.25;;;;;;;;;;5002458;28;20439;-59
2022/02/21 11:44:28;;;;;;;7.50;3.60;;;;;;;;;;5002950;28;20026;-59
2022/02/21 11:46:59;;;;;;;5.45;3.00;;;;;;;;;;5002080;28;20029;-60
2022/02/21 11:49:26;;;;;;;6.63;3.40;;;;;;;;;;4974213;28;20092;-60
2022/02/21 11:51:51;;;;;;;7.30;3.38;;;;;;;;;;4986017;28;20488;-60
2022/02/21 11:54:16;;;;;;;6.80;2.90;;;;;;;;;;4986640;28;20022;-60
2022/02/21 11:56:47;;;;;;;8.18;3.88;;;;;;;;;;4997073;28;20029;-57
2022/02/21 11:59:21;;;;;;;8.77;3.63;;;;;;;;;;4992095;28;20022;-58
2022/02/21 12:01:59;;;;;;;8.73;3.35;;;;;;;;;;4970421;28;20018;-60
2022/02/21 12:04:24;;;;;;;6.38;3.53;;;;;;;;;;4986025;28;20054;-60
2022/02/21 12:06:50;;;;;;;7.03;3.53;;;;;;;;;;4982180;28;20519;-59
2022/02/21 12:09:15;;;;;;;5.60;3.22;;;;;;;;;;4987042;28;20540;-57
2022/02/21 12:11:40;;;;;;;7.60;4.10;;;;;;;;;;4986548;28;20268;-59
2022/02/21 12:14:05;;;;;;;6.73;3.37;;;;;;;;;;4983362;28;20046;-58
2022/02/21 12:16:31;;;;;;;5.83;3.60;;;;;;;;;;4984197;28;20026;-56
2022/02/21 12:19:01;;;;;;;5.53;3.20;;;;;;;;;;4981927;28;20018;-59
2022/02/21 12:21:28;;;;;;;7.38;3.55;;;;;;;;;;4985519;28;20014;-59
2022/02/21 12:24:00;;;;;;;6.60;3.53;;;;;;;;;;4980413;28;20026;-59
2022/02/21 12:26:28;;;;;;;7.57;4.00;;;;;;;;;;4984912;28;20062;-56
2022/02/21 12:29:12;;;;;;;6.28;3.75;;;;;;;;;;4984280;28;20504;-59
2022/02/21 12:31:57;;;;;;;5.60;3.38;;;;;;;;;;4987772;28;20500;-58
2022/02/21 12:34:23;;;;;;;7.57;3.35;;;;;;;;;;4990194;28;20034;-58
2022/02/21 12:36:50;;;;;;;6.50;3.35;;;;;;;;;;5002284;28;20034;-58
2022/02/21 12:39:17;;;;;;;7.03;3.70;;;;;;;;;;5001875;28;20787;-59
2022/02/21 12:41:42;;;;;;;6.57;3.58;;;;;;;;;;5001442;28;20029;-58
2022/02/21 12:44:11;;;;;;;5.83;3.40;;;;;;;;;;5001159;28;20022;-58
2022/02/21 12:46:39;;;;;;;6.15;3.47;;;;;;;;;;5002141;28;20052;-58
2022/02/21 12:49:07;;;;;;;6.22;3.60;;;;;;;;;;5001148;28;20041;-58
2022/02/21 12:51:36;;;;;;;6.28;3.45;;;;;;;;;;5001322;28;20169;-58
2022/02/21 12:54:05;;;;;;;7.13;3.72;;;;;;;;;;4983509;28;20428;-58
2022/02/21 12:56:40;;;;;;;5.60;3.55;;;;;;;;;;4992033;28;20021;-58
2022/02/21 12:59:05;;;;;;;5.40;3.60;;;;;;;;;;4999462;28;20037;-58
2022/02/21 13:01:30;;;;;;;6.70;3.60;;;;;;;;;;4993011;28;20510;-58
2022/02/21 13:03:56;;;;;;;7.27;3.80;;;;;;;;;;4961247;28;20027;-57
2022/02/21 13:06:22;;;;;;;6.63;3.70;;;;;;;;;;4977326;28;20266;-57
2022/02/21 13:08:47;;;;;;;6.43;3.42;;;;;;;;;;4990713;28;20025;-58
2022/02/21 13:11:20;;;;;;;7.17;3.70;;;;;;;;;;4982864;28;20030;-59
2022/02/21 13:13:45;;;;;;;6.55;3.80;;;;;;;;;;4983467;28;20327;-58
2022/02/21 13:16:11;;;;;;;6.70;3.92;;;;;;;;;;4965831;28;20444;-58
2022/02/21 13:18:56;;;;;;;5.53;3.30;;;;;;;;;;4991662;28;20037;-59
2022/02/21 13:21:28;;;;;;;5.65;3.30;;;;;;;;;;4984034;28;20124;-57
2022/02/21 13:23:53;;;;;;;5.93;3.42;;;;;;;;;;4981973;28;20041;-58
2022/02/21 13:26:18;;;;;;;6.30;3.53;;;;;;;;;;4980585;28;20019;-59
2022/02/21 13:28:44;;;;;;;6.03;3.40;;;;;;;;;;4982633;28;20018;-58
2022/02/21 13:31:09;;;;;;;8.87;4.13;;;;;;;;;;4981781;28;20068;-59
2022/02/21 13:33:38;;;;;;;6.03;3.60;;;;;;;;;;4980576;28;20327;-59
2022/02/21 13:36:03;;;;;;;6.45;3.38;;;;;;;;;;4987864;28;20400;-58
2022/02/21 13:38:30;;;;;;;5.72;3.28;;;;;;;;;;5001165;28;20413;-58
2022/02/21 13:40:56;;;;;;;7.15;3.45;;;;;;;;;;5001224;28;20131;-56
2022/02/21 13:43:22;;;;;;;6.18;3.35;;;;;;;;;;5000073;28;20576;-59
2022/02/21 13:45:50;;;;;;;7.15;3.58;;;;;;;;;;4983064;28;20450;-58
2022/02/21 13:48:17;;;;;;;6.80;3.50;;;;;;;;;;5000535;28;20551;-59
2022/02/21 13:50:58;;;;;;;6.95;3.65;;;;;;;;;;5000478;28;20065;-59
2022/02/21 13:55:58;;;;;;;4.55;3.20;;;;;;;;;;5000728;28;20080;-59
2022/02/21 13:58:26;;;;;;;6.22;3.38;;;;;;;;;;4991664;28;20014;-58
2022/02/21 14:00:51;;;;;;;4.85;3.20;;;;;;;;;;4994363;28;20033;-56
2022/02/21 14:03:18;;;;;;;5.93;3.10;;;;;;;;;;5000566;28;20041;-56
2022/02/21 14:05:59;;;;;;;5.65;3.10;;;;;;;;;;4995007;28;20018;-55
2022/02/21 14:08:40;;;;;;;6.53;3.20;;;;;;;;;;4981750;28;20015;-57
2022/02/21 14:11:06;;;;;;;4.95;3.45;;;;;;;;;;4995692;28;20129;-56
2022/02/21 14:13:31;;;;;;;5.68;3.53;;;;;;;;;;5000204;28;20109;-55
2022/02/21 14:15:57;;;;;;;5.75;3.65;;;;;;;;;;4978774;28;20077;-56
2022/02/21 14:18:22;;;;;;;6.55;3.40;;;;;;;;;;5000388;28;20033;-56
2022/02/21 14:20:47;;;;;;;5.77;3.17;;;;;;;;;;4970149;28;20188;-57
2022/02/21 14:23:13;;;;;;;5.07;3.20;;;;;;;;;;4979445;28;20266;-59
2022/02/21 14:25:38;;;;;;;5.43;3.20;;;;;;;;;;4996652;28;20121;-56
2022/02/21 14:28:03;;;;;;;5.72;3.05;;;;;;;;;;4980719;28;20022;-56
2022/02/21 14:30:29;;;;;;;6.27;3.00;;;;;;;;;;4980901;28;20552;-57
2022/02/21 14:32:54;;;;;;;5.53;3.33;;;;;;;;;;4980957;28;20444;-62
2022/02/21 14:35:19;;;;;;;3.67;2.83;;;;;;;;;;4967684;28;20428;-58
2022/02/21 14:37:44;;;;;;;5.53;3.10;;;;;;;;;;4998123;28;20026;-58